Time;durP1;ratioP1;P1;durP2;ratioP2;P2;SDS_P1;SDS_P2;PMS_P1;PMS_P2;Temp;Humidity;BMP_temperature;BMP_pressure;BME280_temperature;BME280_humidity;BME280_pressure;Samples;Min_cycle;Max_cycle;Signal;HPM_P1;HPM_P2
2021/09/02 00:00:57;;;;;;;4.54;3.76;;;;;;;20.35;70.91;101354.79;;;;-50
2021/09/02 00:03:57;;;;;;;4.00;3.57;;;;;;;20.35;70.88;101354.88;;;;-55
2021/09/02 00:06:57;;;;;;;4.32;3.70;;;;;;;20.33;70.90;101346.05;;;;-51
2021/09/02 00:09:57;;;;;;;4.25;3.84;;;;;;;20.34;70.85;101342.82;;;;-51
2021/09/02 00:12:57;;;;;;;4.48;3.56;;;;;;;20.33;70.87;101339.70;;;;-51
2021/09/02 00:15:57;;;;;;;4.70;4.04;;;;;;;20.32;70.88;101334.64;;;;-51
2021/09/02 00:18:57;;;;;;;4.70;3.72;;;;;;;20.32;70.85;101333.75;;;;-56
2021/09/02 00:21:57;;;;;;;4.36;3.55;;;;;;;20.32;70.88;101331.47;;;;-51
2021/09/02 00:24:57;;;;;;;4.38;3.97;;;;;;;20.30;70.88;101326.88;;;;-50
2021/09/02 00:27:57;;;;;;;4.41;3.70;;;;;;;20.29;70.98;101324.73;;;;-51
2021/09/02 00:30:57;;;;;;;4.63;3.90;;;;;;;20.31;70.88;101326.80;;;;-51
2021/09/02 00:33:57;;;;;;;4.09;3.69;;;;;;;20.29;70.91;101326.28;;;;-51
2021/09/02 00:36:57;;;;;;;4.17;3.68;;;;;;;20.29;70.89;101328.88;;;;-50
2021/09/02 00:39:57;;;;;;;4.55;3.58;;;;;;;20.29;70.89;101329.56;;;;-51
2021/09/02 00:42:57;;;;;;;4.37;3.67;;;;;;;20.28;70.89;101326.03;;;;-51
2021/09/02 00:45:57;;;;;;;4.13;3.63;;;;;;;20.28;70.84;101326.84;;;;-51
2021/09/02 00:48:57;;;;;;;3.93;3.53;;;;;;;20.27;70.92;101325.14;;;;-50
2021/09/02 00:51:57;;;;;;;4.05;3.65;;;;;;;20.27;70.87;101325.14;;;;-51
2021/09/02 00:54:57;;;;;;;4.02;3.57;;;;;;;20.27;70.88;101321.72;;;;-50
2021/09/02 00:57:57;;;;;;;3.91;3.52;;;;;;;20.27;70.86;101322.04;;;;-50
2021/09/02 01:00:57;;;;;;;3.96;3.56;;;;;;;20.27;70.93;101326.00;;;;-51
2021/09/02 01:03:57;;;;;;;4.30;3.63;;;;;;;20.27;70.87;101324.29;;;;-51
2021/09/02 01:06:57;;;;;;;4.05;3.63;;;;;;;20.27;70.85;101325.02;;;;-50
2021/09/02 01:09:57;;;;;;;4.27;3.74;;;;;;;20.26;70.87;101320.13;;;;-50
2021/09/02 01:12:57;;;;;;;4.20;3.61;;;;;;;20.26;70.87;101318.91;;;;-50
2021/09/02 01:15:57;;;;;;;4.19;3.79;;;;;;;20.26;70.83;101317.61;;;;-50
2021/09/02 01:18:57;;;;;;;3.59;3.29;;;;;;;20.25;70.85;101321.81;;;;-51
2021/09/02 01:21:57;;;;;;;3.91;3.51;;;;;;;20.26;70.85;101319.23;;;;-50
2021/09/02 01:24:57;;;;;;;3.85;3.49;;;;;;;20.25;70.82;101315.88;;;;-50
2021/09/02 01:27:57;;;;;;;4.20;3.40;;;;;;;20.25;70.83;101315.70;;;;-51
2021/09/02 01:30:57;;;;;;;4.01;3.61;;;;;;;20.26;70.80;101321.44;;;;-56
2021/09/02 01:33:57;;;;;;;3.89;3.49;;;;;;;20.26;70.77;101318.42;;;;-56
2021/09/02 01:36:57;;;;;;;4.07;3.35;;;;;;;20.25;70.76;101318.80;;;;-55
2021/09/02 01:39:57;;;;;;;3.89;3.51;;;;;;;20.24;70.85;101320.84;;;;-51
2021/09/02 01:42:57;;;;;;;3.77;3.47;;;;;;;20.24;70.83;101317.98;;;;-51
2021/09/02 01:45:57;;;;;;;3.93;3.41;;;;;;;20.24;70.79;101321.23;;;;-51
2021/09/02 01:48:57;;;;;;;3.72;3.38;;;;;;;20.23;70.83;101313.88;;;;-51
2021/09/02 01:51:57;;;;;;;3.95;3.52;;;;;;;20.22;70.77;101314.20;;;;-51
2021/09/02 01:54:57;;;;;;;3.83;3.36;;;;;;;20.22;70.84;101312.25;;;;-55
2021/09/02 01:57:57;;;;;;;3.71;3.29;;;;;;;20.21;70.86;101317.91;;;;-55
2021/09/02 02:00:57;;;;;;;3.87;3.47;;;;;;;20.22;70.75;101317.38;;;;-55
2021/09/02 02:03:57;;;;;;;3.94;3.47;;;;;;;20.23;70.75;101318.84;;;;-56
2021/09/02 02:06:57;;;;;;;3.62;3.32;;;;;;;20.22;70.76;101316.48;;;;-55
2021/09/02 02:09:57;;;;;;;3.91;3.51;;;;;;;20.23;70.82;101318.11;;;;-56
2021/09/02 02:12:57;;;;;;;4.25;3.58;;;;;;;20.22;70.78;101315.59;;;;-56
2021/09/02 02:15:57;;;;;;;4.00;3.60;;;;;;;20.23;70.74;101316.92;;;;-56
2021/09/02 02:18:57;;;;;;;3.51;3.21;;;;;;;20.22;70.76;101313.47;;;;-50
2021/09/02 02:21:57;;;;;;;3.85;3.47;;;;;;;20.21;70.78;101315.88;;;;-50
2021/09/02 02:24:57;;;;;;;3.72;3.42;;;;;;;20.20;70.83;101307.25;;;;-50
2021/09/02 02:27:57;;;;;;;3.46;3.14;;;;;;;20.19;70.76;101309.28;;;;-51
2021/09/02 02:30:56;;;;;;;3.74;3.29;;;;;;;20.21;70.79;101315.09;;;;-50
2021/09/02 02:33:57;;;;;;;3.70;3.37;;;;;;;20.21;70.75;101318.16;;;;-52
2021/09/02 02:36:57;;;;;;;4.08;3.65;;;;;;;20.20;70.83;101313.60;;;;-51
2021/09/02 02:39:57;;;;;;;3.73;3.42;;;;;;;20.19;70.80;101319.19;;;;-52
2021/09/02 02:42:58;;;;;;;4.03;3.40;;;;;;;20.19;70.74;101320.65;;;;-51
2021/09/02 02:45:58;;;;;;;3.63;3.33;;;;;;;20.18;70.81;101317.06;;;;-51
2021/09/02 02:48:57;;;;;;;3.51;3.21;;;;;;;20.19;70.86;101315.52;;;;-52
2021/09/02 02:51:56;;;;;;;3.46;3.16;;;;;;;20.18;70.85;101319.10;;;;-50
2021/09/02 02:54:57;;;;;;;4.49;3.30;;;;;;;20.19;70.76;101317.59;;;;-52
2021/09/02 02:57:57;;;;;;;3.76;3.31;;;;;;;20.18;70.76;101317.72;;;;-51
2021/09/02 03:00:57;;;;;;;4.04;3.58;;;;;;;20.18;70.78;101319.83;;;;-51
2021/09/02 03:03:56;;;;;;;3.77;3.39;;;;;;;20.18;70.74;101317.55;;;;-52
2021/09/02 03:06:56;;;;;;;3.70;3.29;;;;;;;20.17;70.76;101317.23;;;;-51
2021/09/02 03:09:57;;;;;;;3.48;3.18;;;;;;;20.18;70.71;101319.02;;;;-51
2021/09/02 03:12:57;;;;;;;3.72;3.32;;;;;;;20.16;70.79;101315.89;;;;-51
2021/09/02 03:15:57;;;;;;;3.45;3.15;;;;;;;20.16;70.81;101316.54;;;;-51
2021/09/02 03:18:56;;;;;;;3.55;3.25;;;;;;;20.17;70.68;101319.59;;;;-51
2021/09/02 03:21:56;;;;;;;3.44;3.14;;;;;;;20.17;70.71;101316.00;;;;-51
2021/09/02 03:24:57;;;;;;;3.51;3.21;;;;;;;20.17;70.72;101316.38;;;;-51
2021/09/02 03:27:56;;;;;;;3.57;3.26;;;;;;;20.17;70.73;101312.72;;;;-51
2021/09/02 03:30:57;;;;;;;4.54;3.37;;;;;;;20.16;70.66;101311.58;;;;-50
2021/09/02 03:33:56;;;;;;;3.43;3.13;;;;;;;20.16;70.69;101312.72;;;;-55
2021/09/02 03:36:57;;;;;;;3.41;3.11;;;;;;;20.14;70.77;101309.09;;;;-52
2021/09/02 03:39:56;;;;;;;3.57;3.27;;;;;;;20.14;70.72;101311.22;;;;-50
2021/09/02 03:42:56;;;;;;;3.73;3.15;;;;;;;20.15;70.78;101316.84;;;;-56
2021/09/02 03:45:57;;;;;;;3.60;3.30;;;;;;;20.15;70.73;101319.39;;;;-55
2021/09/02 03:48:56;;;;;;;3.54;3.24;;;;;;;20.14;70.71;101317.97;;;;-56
2021/09/02 03:51:57;;;;;;;4.13;3.73;;;;;;;20.14;70.75;101317.41;;;;-54
2021/09/02 03:54:57;;;;;;;3.99;3.55;;;;;;;20.15;70.67;101316.30;;;;-56
2021/09/02 03:57:56;;;;;;;3.53;3.23;;;;;;;20.14;70.75;101311.63;;;;-56
2021/09/02 04:00:56;;;;;;;3.56;3.26;;;;;;;20.14;70.69;101310.23;;;;-56
2021/09/02 04:03:57;;;;;;;3.78;3.38;;;;;;;20.13;70.70;101312.11;;;;-56
2021/09/02 04:06:56;;;;;;;3.61;3.09;;;;;;;20.13;70.71;101315.53;;;;-55
2021/09/02 04:09:57;;;;;;;3.48;3.18;;;;;;;20.14;70.71;101313.49;;;;-56
2021/09/02 04:12:57;;;;;;;3.55;3.25;;;;;;;20.14;70.65;101316.19;;;;-54
2021/09/02 04:15:56;;;;;;;3.87;3.19;;;;;;;20.13;70.69;101310.41;;;;-55
2021/09/02 04:18:56;;;;;;;3.38;3.08;;;;;;;20.14;70.62;101308.28;;;;-51
2021/09/02 04:21:56;;;;;;;3.60;3.26;;;;;;;20.13;70.71;101306.95;;;;-51
2021/09/02 04:24:56;;;;;;;3.60;3.30;;;;;;;20.13;70.58;101310.08;;;;-51
2021/09/02 04:27:56;;;;;;;3.34;3.04;;;;;;;20.12;70.69;101310.86;;;;-51
2021/09/02 04:30:56;;;;;;;3.53;3.23;;;;;;;20.12;70.62;101313.62;;;;-51
2021/09/02 04:33:57;;;;;;;3.53;3.23;;;;;;;20.12;70.58;101310.69;;;;-51
2021/09/02 04:36:56;;;;;;;3.63;3.33;;;;;;;20.11;70.71;101303.28;;;;-51
2021/09/02 04:39:57;;;;;;;3.59;3.29;;;;;;;20.11;70.71;101302.03;;;;-55
2021/09/02 04:42:56;;;;;;;3.52;3.22;;;;;;;20.10;70.60;101303.17;;;;-51
2021/09/02 04:45:56;;;;;;;3.70;3.24;;;;;;;20.11;70.62;101304.42;;;;-51
2021/09/02 04:48:56;;;;;;;3.47;3.17;;;;;;;20.11;70.59;101307.84;;;;-51
2021/09/02 04:51:56;;;;;;;3.61;3.31;;;;;;;20.10;70.61;101309.11;;;;-55
2021/09/02 04:54:56;;;;;;;3.44;3.14;;;;;;;20.10;70.65;101311.47;;;;-56
2021/09/02 04:57:56;;;;;;;3.61;3.29;;;;;;;20.09;70.64;101313.34;;;;-57
2021/09/02 05:00:56;;;;;;;6.85;3.71;;;;;;;20.12;70.08;101319.64;;;;-51
2021/09/02 05:03:57;;;;;;;6.07;3.60;;;;;;;20.11;70.27;101325.42;;;;-51
2021/09/02 05:06:56;;;;;;;4.70;3.29;;;;;;;20.08;70.37;101329.02;;;;-51
2021/09/02 05:09:56;;;;;;;7.26;3.51;;;;;;;20.15;70.48;101330.09;;;;-54
2021/09/02 05:12:56;;;;;;;9.90;3.35;;;;;;;20.14;70.42;101330.50;;;;-56
2021/09/02 05:15:56;;;;;;;5.39;3.61;;;;;;;20.14;70.38;101327.91;;;;-57
2021/09/02 05:18:56;;;;;;;12.81;3.85;;;;;;;20.16;69.84;101327.53;;;;-62
2021/09/02 05:21:56;;;;;;;7.61;4.72;;;;;;;20.14;69.12;101333.44;;;;-54
2021/09/02 05:24:56;;;;;;;10.39;4.80;;;;;;;20.14;69.56;101340.84;;;;-56
2021/09/02 05:27:56;;;;;;;8.47;4.45;;;;;;;20.13;69.79;101343.57;;;;-59
2021/09/02 05:30:57;;;;;;;12.42;4.55;;;;;;;20.09;69.88;101341.66;;;;-59
2021/09/02 05:33:56;;;;;;;10.28;4.24;;;;;;;20.08;70.00;101341.63;;;;-59
2021/09/02 05:36:56;;;;;;;5.52;4.07;;;;;;;20.07;70.03;101340.89;;;;-60
2021/09/02 05:39:56;;;;;;;6.49;3.87;;;;;;;20.08;70.10;101348.46;;;;-59
2021/09/02 05:42:56;;;;;;;4.90;4.05;;;;;;;20.07;70.10;101351.47;;;;-59
2021/09/02 05:45:56;;;;;;;6.29;3.83;;;;;;;20.07;70.15;101355.95;;;;-59
2021/09/02 05:48:56;;;;;;;4.43;3.63;;;;;;;20.07;70.18;101352.77;;;;-59
2021/09/02 05:51:56;;;;;;;4.17;3.71;;;;;;;20.07;70.25;101350.33;;;;-51
2021/09/02 05:54:58;;;;;;;4.71;3.68;;;;;;;20.07;70.29;101348.54;;;;-52
2021/09/02 05:57:57;;;;;;;5.09;3.78;;;;;;;20.07;70.26;101345.53;;;;-52
2021/09/02 06:00:56;;;;;;;5.73;3.61;;;;;;;20.05;70.34;101345.08;;;;-52
2021/09/02 06:03:56;;;;;;;7.93;3.67;;;;;;;20.05;70.35;101346.80;;;;-51
2021/09/02 06:06:56;;;;;;;4.79;3.63;;;;;;;20.05;70.38;101348.50;;;;-52
2021/09/02 06:09:56;;;;;;;4.76;3.65;;;;;;;20.04;70.42;101347.00;;;;-51
2021/09/02 06:12:57;;;;;;;6.39;3.74;;;;;;;20.04;70.44;101347.98;;;;-51
2021/09/02 06:15:56;;;;;;;4.45;3.69;;;;;;;20.03;70.46;101347.57;;;;-51
2021/09/02 06:18:56;;;;;;;4.18;3.43;;;;;;;20.03;70.46;101347.08;;;;-52
2021/09/02 06:21:56;;;;;;;4.90;3.51;;;;;;;20.03;70.49;101347.08;;;;-56
2021/09/02 06:24:56;;;;;;;4.73;3.65;;;;;;;20.03;70.50;101340.57;;;;-56
2021/09/02 06:27:56;;;;;;;3.82;3.47;;;;;;;20.03;70.48;101341.95;;;;-51
2021/09/02 06:30:56;;;;;;;4.08;3.68;;;;;;;20.05;70.44;101346.47;;;;-51
2021/09/02 06:33:56;;;;;;;3.83;3.48;;;;;;;20.05;70.47;101352.00;;;;-51
2021/09/02 06:36:56;;;;;;;3.97;3.63;;;;;;;20.05;70.41;101357.53;;;;-51
2021/09/02 06:39:56;;;;;;;4.98;3.50;;;;;;;20.05;70.47;101353.95;;;;-57
2021/09/02 06:42:56;;;;;;;4.39;3.72;;;;;;;20.04;70.50;101357.58;;;;-56
2021/09/02 06:45:56;;;;;;;3.89;3.49;;;;;;;20.04;70.50;101356.03;;;;-56
2021/09/02 06:48:57;;;;;;;3.68;3.37;;;;;;;20.04;70.55;101358.39;;;;-56
2021/09/02 06:51:57;;;;;;;4.11;3.53;;;;;;;20.03;70.55;101352.13;;;;-56
2021/09/02 06:54:57;;;;;;;5.51;3.50;;;;;;;20.04;70.52;101353.02;;;;-51
2021/09/02 06:57:56;;;;;;;3.57;3.27;;;;;;;20.03;70.50;101350.17;;;;-51
2021/09/02 07:00:56;;;;;;;4.41;3.45;;;;;;;20.02;70.53;101348.75;;;;-51
2021/09/02 07:03:56;;;;;;;4.08;3.20;;;;;;;20.02;70.54;101345.26;;;;-51
2021/09/02 07:06:56;;;;;;;4.25;3.47;;;;;;;20.02;70.62;101346.16;;;;-51
2021/09/02 07:09:56;;;;;;;3.61;3.31;;;;;;;20.02;70.60;101346.31;;;;-51
2021/09/02 07:12:56;;;;;;;4.33;3.32;;;;;;;20.03;70.56;101346.92;;;;-51
2021/09/02 07:15:56;;;;;;;3.69;3.22;;;;;;;20.02;70.54;101342.57;;;;-51
2021/09/02 07:18:57;;;;;;;4.01;3.50;;;;;;;20.02;70.57;101345.83;;;;-51
2021/09/02 07:21:56;;;;;;;3.68;3.19;;;;;;;20.02;70.55;101343.30;;;;-51
2021/09/02 07:24:56;;;;;;;3.89;3.47;;;;;;;20.02;70.64;101344.93;;;;-51
2021/09/02 07:27:56;;;;;;;4.67;3.33;;;;;;;20.02;70.60;101348.84;;;;-51
2021/09/02 07:30:56;;;;;;;3.50;3.20;;;;;;;20.01;70.58;101349.16;;;;-51
2021/09/02 07:33:56;;;;;;;3.61;3.31;;;;;;;20.01;70.62;101348.83;;;;-52
2021/09/02 07:36:58;;;;;;;4.97;3.35;;;;;;;20.02;70.56;101351.93;;;;-51
2021/09/02 07:39:56;;;;;;;4.39;3.31;;;;;;;20.03;70.57;101353.34;;;;-52
2021/09/02 07:42:57;;;;;;;4.15;3.27;;;;;;;20.03;70.53;101356.68;;;;-51
2021/09/02 07:45:57;;;;;;;3.66;3.07;;;;;;;20.02;70.52;101358.36;;;;-52
2021/09/02 07:48:56;;;;;;;3.82;3.21;;;;;;;20.03;70.55;101357.41;;;;-52
2021/09/02 07:51:56;;;;;;;3.79;3.20;;;;;;;20.02;70.53;101363.24;;;;-51
2021/09/02 07:54:56;;;;;;;3.65;3.10;;;;;;;20.03;70.50;101359.94;;;;-51
2021/09/02 07:57:59;;;;;;;3.59;3.29;;;;;;;20.03;70.55;101364.17;;;;-51
2021/09/02 08:00:56;;;;;;;3.37;3.03;;;;;;;20.02;70.49;101361.94;;;;-51
2021/09/02 08:03:56;;;;;;;3.57;3.27;;;;;;;20.03;70.50;101357.58;;;;-51
2021/09/02 08:06:56;;;;;;;3.41;3.11;;;;;;;20.02;70.51;101361.12;;;;-52
2021/09/02 08:09:57;;;;;;;3.87;3.22;;;;;;;20.03;70.50;101363.52;;;;-60
2021/09/02 08:12:57;;;;;;;5.86;3.18;;;;;;;20.07;70.46;101358.87;;;;-57
2021/09/02 08:15:56;;;;;;;3.46;3.16;;;;;;;20.07;70.45;101356.92;;;;-54
2021/09/02 08:18:57;;;;;;;4.67;3.53;;;;;;;20.06;70.63;101357.70;;;;-56
2021/09/02 08:21:56;;;;;;;4.41;3.09;;;;;;;20.08;70.69;101360.66;;;;-57
2021/09/02 08:24:56;;;;;;;3.68;3.14;;;;;;;20.09;70.72;101362.25;;;;-52
2021/09/02 08:27:56;;;;;;;3.94;3.21;;;;;;;20.11;70.75;101363.39;;;;-48
2021/09/02 08:30:57;;;;;;;3.59;3.15;;;;;;;20.13;70.81;101362.53;;;;-51
2021/09/02 08:33:56;;;;;;;3.78;3.06;;;;;;;20.14;70.99;101358.98;;;;-54
2021/09/02 08:36:56;;;;;;;3.70;3.01;;;;;;;20.17;70.88;101360.41;;;;-54
2021/09/02 08:39:56;;;;;;;3.47;3.17;;;;;;;20.18;70.92;101356.05;;;;-61
2021/09/02 08:42:57;;;;;;;3.83;3.29;;;;;;;20.20;70.87;101358.37;;;;-61
2021/09/02 08:45:56;;;;;;;3.24;2.94;;;;;;;20.21;70.90;101356.45;;;;-60
2021/09/02 08:48:56;;;;;;;3.42;3.06;;;;;;;20.22;70.88;101356.20;;;;-54
2021/09/02 08:51:56;;;;;;;3.85;3.26;;;;;;;20.23;70.89;101352.78;;;;-57
2021/09/02 08:54:56;;;;;;;6.49;3.29;;;;;;;20.25;70.86;101352.34;;;;-59
2021/09/02 08:57:56;;;;;;;3.49;3.19;;;;;;;20.25;70.89;101350.88;;;;-60
2021/09/02 09:00:56;;;;;;;3.48;3.17;;;;;;;20.26;70.87;101354.00;;;;-59
2021/09/02 09:03:56;;;;;;;5.03;3.29;;;;;;;20.27;70.88;101355.71;;;;-58
2021/09/02 09:06:56;;;;;;;3.65;3.30;;;;;;;20.28;70.90;101350.29;;;;-63
2021/09/02 09:09:56;;;;;;;4.13;3.03;;;;;;;20.29;70.97;101353.34;;;;-61
2021/09/02 09:12:56;;;;;;;3.81;3.05;;;;;;;20.29;70.96;101350.78;;;;-47
2021/09/02 09:15:56;;;;;;;3.68;3.00;;;;;;;20.28;70.92;101349.31;;;;-47
2021/09/02 09:18:56;;;;;;;3.40;3.10;;;;;;;20.27;70.86;101348.30;;;;-46
2021/09/02 09:21:56;;;;;;;4.81;3.41;;;;;;;20.27;70.79;101345.48;;;;-44
2021/09/02 09:24:56;;;;;;;4.79;3.18;;;;;;;20.28;70.74;101342.06;;;;-44
2021/09/02 09:27:56;;;;;;;4.09;3.27;;;;;;;20.31;70.71;101339.83;;;;-46
2021/09/02 09:30:56;;;;;;;5.09;3.01;;;;;;;20.31;70.74;101338.77;;;;-48
2021/09/02 09:33:56;;;;;;;5.33;3.47;;;;;;;20.33;70.70;101335.14;;;;-51
2021/09/02 09:36:56;;;;;;;3.79;3.27;;;;;;;20.31;70.69;101330.14;;;;-51
2021/09/02 09:39:56;;;;;;;7.24;3.43;;;;;;;20.31;70.73;101331.52;;;;-51
2021/09/02 09:42:56;;;;;;;3.86;3.27;;;;;;;20.30;70.69;101328.02;;;;-51
2021/09/02 09:45:56;;;;;;;4.63;3.27;;;;;;;20.29;70.71;101321.39;;;;-51
2021/09/02 09:48:56;;;;;;;5.79;3.26;;;;;;;20.28;70.70;101315.05;;;;-53
2021/09/02 09:51:56;;;;;;;3.63;3.30;;;;;;;20.27;70.64;101315.91;;;;-52
2021/09/02 09:54:59;;;;;;;3.79;3.41;;;;;;;20.28;70.62;101314.23;;;;-49
2021/09/02 09:57:56;;;;;;;3.81;3.19;;;;;;;20.30;70.64;101315.64;;;;-55
2021/09/02 10:00:56;;;;;;;5.29;3.03;;;;;;;20.29;70.61;101311.33;;;;-52
2021/09/02 10:03:56;;;;;;;3.96;3.13;;;;;;;20.30;70.59;101308.41;;;;-52
2021/09/02 10:06:57;;;;;;;4.19;3.09;;;;;;;20.32;70.63;101309.17;;;;-61
2021/09/02 10:09:56;;;;;;;3.83;3.05;;;;;;;20.32;70.70;101308.44;;;;-58
2021/09/02 10:12:56;;;;;;;4.93;3.27;;;;;;;20.34;70.64;101300.81;;;;-63
2021/09/02 10:15:56;;;;;;;3.51;3.12;;;;;;;20.34;70.70;101293.00;;;;-56
2021/09/02 10:18:56;;;;;;;7.29;3.07;;;;;;;20.33;70.70;101291.50;;;;-57
2021/09/02 10:21:56;;;;;;;4.97;3.23;;;;;;;20.33;70.66;101297.77;;;;-63
2021/09/02 10:24:56;;;;;;;4.20;3.05;;;;;;;20.32;70.65;101296.31;;;;-63
2021/09/02 10:27:56;;;;;;;3.68;3.18;;;;;;;20.32;70.59;101291.09;;;;-63
2021/09/02 10:30:56;;;;;;;4.50;3.21;;;;;;;20.31;70.60;101294.56;;;;-63
2021/09/02 10:33:56;;;;;;;4.10;3.05;;;;;;;20.30;70.61;101289.44;;;;-63
2021/09/02 10:36:56;;;;;;;3.34;3.03;;;;;;;20.30;70.57;101285.94;;;;-58
2021/09/02 10:39:56;;;;;;;4.37;3.19;;;;;;;20.30;70.58;101281.53;;;;-62
2021/09/02 10:42:57;;;;;;;3.85;2.95;;;;;;;20.29;70.62;101274.83;;;;-63
2021/09/02 10:45:56;;;;;;;3.03;2.80;;;;;;;20.29;70.56;101273.20;;;;-57
2021/09/02 10:48:56;;;;;;;3.05;2.76;;;;;;;20.29;70.56;101272.47;;;;-57
2021/09/02 10:51:56;;;;;;;3.16;2.86;;;;;;;20.29;70.56;101264.17;;;;-63
2021/09/02 10:54:56;;;;;;;4.63;3.15;;;;;;;20.29;70.56;101267.27;;;;-63
2021/09/02 10:57:57;;;;;;;4.33;3.07;;;;;;;20.28;70.59;101265.39;;;;-62
2021/09/02 11:00:56;;;;;;;3.15;2.88;;;;;;;20.28;70.49;101264.00;;;;-62
2021/09/02 11:03:57;;;;;;;3.86;3.10;;;;;;;20.27;70.52;101269.13;;;;-58
2021/09/02 11:06:57;;;;;;;2.91;2.71;;;;;;;20.27;70.48;101260.96;;;;-58
2021/09/02 11:09:57;;;;;;;3.62;2.81;;;;;;;20.28;70.50;101260.59;;;;-58
2021/09/02 11:12:56;;;;;;;3.23;2.93;;;;;;;20.27;70.45;101261.53;;;;-57
2021/09/02 11:15:56;;;;;;;3.95;2.87;;;;;;;20.27;70.52;101251.55;;;;-59
2021/09/02 11:18:56;;;;;;;3.39;3.09;;;;;;;20.27;70.50;101251.77;;;;-57
2021/09/02 11:21:56;;;;;;;3.41;3.11;;;;;;;20.26;70.51;101248.09;;;;-63
2021/09/02 11:24:56;;;;;;;3.71;3.01;;;;;;;20.28;70.46;101241.30;;;;-50
2021/09/02 11:27:57;;;;;;;3.37;3.06;;;;;;;20.31;70.44;101237.74;;;;-62
2021/09/02 11:30:56;;;;;;;6.73;3.15;;;;;;;20.32;70.57;101239.08;;;;-56
2021/09/02 11:33:56;;;;;;;4.53;2.95;;;;;;;20.33;70.62;101237.37;;;;-51
2021/09/02 11:36:56;;;;;;;4.43;2.95;;;;;;;20.33;70.55;101236.23;;;;-54
2021/09/02 11:39:56;;;;;;;4.68;3.05;;;;;;;20.35;70.57;101229.75;;;;-51
2021/09/02 11:42:56;;;;;;;4.05;2.85;;;;;;;20.36;70.59;101232.55;;;;-52
2021/09/02 11:45:56;;;;;;;5.64;3.01;;;;;;;20.36;70.58;101226.36;;;;-52
2021/09/02 11:48:56;;;;;;;3.98;3.00;;;;;;;20.38;70.58;101218.62;;;;-53
2021/09/02 11:51:57;;;;;;;6.20;3.12;;;;;;;20.37;70.58;101221.48;;;;-53
2021/09/02 11:54:56;;;;;;;4.61;3.09;;;;;;;20.36;70.54;101223.91;;;;-58
2021/09/02 11:57:56;;;;;;;8.73;3.17;;;;;;;20.36;70.53;101225.27;;;;-58
2021/09/02 12:00:56;;;;;;;3.71;2.83;;;;;;;20.35;70.49;101226.41;;;;-52
2021/09/02 12:03:57;;;;;;;4.41;2.98;;;;;;;20.34;70.56;101224.86;;;;-51
2021/09/02 12:06:56;;;;;;;5.43;3.19;;;;;;;20.34;70.55;101225.92;;;;-58
2021/09/02 12:09:56;;;;;;;4.87;2.86;;;;;;;20.34;70.58;101224.45;;;;-58
2021/09/02 12:12:58;;;;;;;4.80;3.21;;;;;;;20.33;70.56;101224.27;;;;-51
2021/09/02 12:15:56;;;;;;;3.69;3.00;;;;;;;20.32;70.55;101215.72;;;;-51
2021/09/02 12:18:56;;;;;;;5.81;3.11;;;;;;;20.33;70.56;101219.87;;;;-58
2021/09/02 12:21:56;;;;;;;4.65;3.00;;;;;;;20.33;70.52;101224.18;;;;-58
2021/09/02 12:24:56;;;;;;;4.86;3.02;;;;;;;20.32;70.48;101222.23;;;;-58
2021/09/02 12:27:56;;;;;;;3.95;2.95;;;;;;;20.32;70.50;101216.13;;;;-52
2021/09/02 12:30:56;;;;;;;3.53;3.00;;;;;;;20.32;70.50;101220.03;;;;-52
2021/09/02 12:33:56;;;;;;;3.90;2.89;;;;;;;20.32;70.47;101214.41;;;;-53
2021/09/02 12:36:56;;;;;;;3.71;3.02;;;;;;;20.32;70.50;101209.20;;;;-58
2021/09/02 12:40:01;;;;;;;3.11;2.81;;;;;;;20.31;70.51;101206.16;;;;-51
2021/09/02 12:42:56;;;;;;;3.91;3.10;;;;;;;20.31;70.49;101204.94;;;;-54
2021/09/02 12:45:56;;;;;;;3.34;2.97;;;;;;;20.32;70.47;101205.38;;;;-51
2021/09/02 12:48:56;;;;;;;4.67;2.81;;;;;;;20.35;70.49;101210.94;;;;-51
2021/09/02 12:51:56;;;;;;;4.69;2.97;;;;;;;20.37;70.81;101205.92;;;;-47
2021/09/02 12:54:56;;;;;;;9.27;3.16;;;;;;;20.41;70.71;101203.87;;;;-51
2021/09/02 12:57:56;;;;;;;5.78;2.99;;;;;;;20.43;70.71;101205.12;;;;-51
2021/09/02 13:00:56;;;;;;;5.66;3.05;;;;;;;20.43;70.74;101200.80;;;;-53
2021/09/02 13:03:56;;;;;;;7.73;3.11;;;;;;;20.44;70.80;101195.19;;;;-56
2021/09/02 13:06:56;;;;;;;7.33;3.16;;;;;;;20.44;70.66;101194.29;;;;-57
2021/09/02 13:09:56;;;;;;;5.21;2.99;;;;;;;20.46;70.78;101196.95;;;;-58
2021/09/02 13:12:56;;;;;;;5.45;3.03;;;;;;;20.48;70.77;101191.94;;;;-55
2021/09/02 13:15:56;;;;;;;8.07;2.90;;;;;;;20.49;70.68;101189.81;;;;-49
2021/09/02 13:18:56;;;;;;;4.31;2.98;;;;;;;20.50;70.86;101185.38;;;;-52
2021/09/02 13:21:56;;;;;;;4.87;2.93;;;;;;;20.52;70.81;101182.79;;;;-56
2021/09/02 13:24:56;;;;;;;4.83;3.00;;;;;;;20.54;70.87;101180.75;;;;-60
2021/09/02 13:27:56;;;;;;;5.40;3.19;;;;;;;20.55;70.84;101178.67;;;;-50
2021/09/02 13:30:56;;;;;;;16.27;3.31;;;;;;;20.57;70.94;101176.25;;;;-52
2021/09/02 13:33:56;;;;;;;14.14;3.13;;;;;;;20.58;70.83;101169.77;;;;-56
2021/09/02 13:36:56;;;;;;;10.21;3.16;;;;;;;20.58;70.76;101170.55;;;;-54
2021/09/02 13:39:56;;;;;;;6.96;3.07;;;;;;;20.57;70.69;101163.88;;;;-60
2021/09/02 13:42:56;;;;;;;7.79;3.39;;;;;;;20.58;70.83;101169.19;;;;-51
2021/09/02 13:45:56;;;;;;;8.11;3.35;;;;;;;20.57;70.64;101164.36;;;;-53
2021/09/02 13:48:56;;;;;;;8.64;3.23;;;;;;;20.57;70.62;101166.64;;;;-56
2021/09/02 13:51:56;;;;;;;12.07;2.97;;;;;;;20.57;70.59;101159.15;;;;-52
2021/09/02 13:54:56;;;;;;;7.63;2.97;;;;;;;20.58;70.71;101153.94;;;;-54
2021/09/02 13:57:56;;;;;;;8.89;3.35;;;;;;;20.58;70.73;101153.13;;;;-54
2021/09/02 14:01:00;;;;;;;5.55;3.15;;;;;;;20.57;70.76;101145.39;;;;-50
2021/09/02 14:03:56;;;;;;;5.65;3.12;;;;;;;20.57;70.80;101141.72;;;;-49
2021/09/02 14:06:56;;;;;;;6.22;2.99;;;;;;;20.58;70.76;101143.62;;;;-54
2021/09/02 14:09:56;;;;;;;6.40;3.15;;;;;;;20.59;70.81;101136.89;;;;-53
2021/09/02 14:12:56;;;;;;;10.43;3.27;;;;;;;20.59;70.73;101136.89;;;;-52
2021/09/02 14:15:57;;;;;;;7.07;3.05;;;;;;;20.58;70.78;101136.62;;;;-59
2021/09/02 14:18:56;;;;;;;5.60;3.21;;;;;;;20.59;70.70;101131.84;;;;-50
2021/09/02 14:21:56;;;;;;;7.29;3.17;;;;;;;20.59;70.74;101130.62;;;;-57
2021/09/02 14:24:56;;;;;;;4.79;2.99;;;;;;;20.59;70.77;101125.90;;;;-53
2021/09/02 14:27:56;;;;;;;5.01;3.30;;;;;;;20.60;70.84;101121.74;;;;-49
2021/09/02 14:30:56;;;;;;;5.28;3.23;;;;;;;20.60;70.82;101112.30;;;;-49
2021/09/02 14:33:56;;;;;;;4.58;3.10;;;;;;;20.60;70.80;101106.35;;;;-51
2021/09/02 14:36:56;;;;;;;5.75;2.82;;;;;;;20.61;70.80;101104.51;;;;-51
2021/09/02 14:39:56;;;;;;;4.50;2.91;;;;;;;20.62;70.81;101102.80;;;;-51
2021/09/02 14:42:56;;;;;;;5.48;3.05;;;;;;;20.62;70.88;101101.73;;;;-52
2021/09/02 14:45:56;;;;;;;3.76;2.99;;;;;;;20.62;70.88;101106.78;;;;-53
2021/09/02 14:48:56;;;;;;;5.47;3.14;;;;;;;20.63;70.81;101102.30;;;;-60
2021/09/02 14:51:56;;;;;;;4.43;2.91;;;;;;;20.64;71.01;101101.84;;;;-63
2021/09/02 14:54:56;;;;;;;5.50;2.83;;;;;;;20.66;70.98;101100.64;;;;-58
2021/09/02 14:57:56;;;;;;;4.41;2.95;;;;;;;20.66;70.77;101099.66;;;;-51
2021/09/02 15:00:56;;;;;;;5.67;3.09;;;;;;;20.66;70.82;101095.02;;;;-60
2021/09/02 15:03:56;;;;;;;7.92;3.25;;;;;;;20.64;70.80;101088.81;;;;-53
2021/09/02 15:06:56;;;;;;;7.55;3.04;;;;;;;20.63;70.77;101093.94;;;;-52
2021/09/02 15:09:56;;;;;;;6.76;3.04;;;;;;;20.62;70.71;101092.13;;;;-52
2021/09/02 15:12:56;;;;;;;4.93;2.97;;;;;;;20.62;70.82;101089.68;;;;-58
2021/09/02 15:15:56;;;;;;;12.33;3.20;;;;;;;20.61;70.72;101082.44;;;;-59
2021/09/02 15:18:56;;;;;;;7.05;3.14;;;;;;;20.60;70.65;101077.28;;;;-59
2021/09/02 15:21:56;;;;;;;5.36;3.15;;;;;;;20.59;70.65;101079.48;;;;-52
2021/09/02 15:24:56;;;;;;;4.96;3.13;;;;;;;20.59;70.61;101076.06;;;;-52
2021/09/02 15:27:56;;;;;;;6.48;3.11;;;;;;;20.60;70.46;101073.29;;;;-52
2021/09/02 15:30:56;;;;;;;6.41;3.09;;;;;;;20.61;70.60;101076.55;;;;-53
2021/09/02 15:33:56;;;;;;;8.72;3.17;;;;;;;20.62;70.56;101073.80;;;;-53
2021/09/02 15:36:57;;;;;;;4.51;2.75;;;;;;;20.62;70.50;101075.52;;;;-51
2021/09/02 15:40:02;;;;;;;4.83;3.08;;;;;;;20.61;70.57;101077.80;;;;-51
2021/09/02 15:42:56;;;;;;;5.90;2.97;;;;;;;20.63;70.67;101077.01;;;;-51
2021/09/02 15:45:57;;;;;;;5.99;2.98;;;;;;;20.64;70.60;101079.94;;;;-51
2021/09/02 15:48:56;;;;;;;6.54;3.24;;;;;;;20.65;70.60;101077.89;;;;-57
2021/09/02 15:51:56;;;;;;;5.30;3.10;;;;;;;20.66;70.61;101075.16;;;;-54
2021/09/02 15:54:56;;;;;;;6.16;3.07;;;;;;;20.67;70.65;101072.16;;;;-57
2021/09/02 15:57:57;;;;;;;5.20;3.04;;;;;;;20.68;70.56;101064.67;;;;-56
2021/09/02 16:00:56;;;;;;;5.67;3.10;;;;;;;20.68;70.48;101067.92;;;;-53
2021/09/02 16:03:56;;;;;;;8.59;3.16;;;;;;;20.68;70.57;101063.77;;;;-53
2021/09/02 16:06:56;;;;;;;5.42;3.17;;;;;;;20.69;70.54;101061.44;;;;-53
2021/09/02 16:09:56;;;;;;;5.73;3.05;;;;;;;20.69;70.48;101057.84;;;;-54
2021/09/02 16:12:56;;;;;;;8.53;3.19;;;;;;;20.71;70.53;101053.69;;;;-53
2021/09/02 16:15:56;;;;;;;10.29;3.15;;;;;;;20.71;70.63;101053.97;;;;-54
2021/09/02 16:18:56;;;;;;;10.29;3.41;;;;;;;20.71;70.56;101050.43;;;;-53
2021/09/02 16:21:56;;;;;;;5.94;2.93;;;;;;;20.71;70.70;101049.65;;;;-58
2021/09/02 16:24:56;;;;;;;7.97;3.29;;;;;;;20.71;70.95;101046.12;;;;-52
2021/09/02 16:27:56;;;;;;;7.71;3.09;;;;;;;20.71;71.09;101042.64;;;;-51
2021/09/02 16:30:56;;;;;;;12.54;3.26;;;;;;;20.72;70.85;101043.29;;;;-51
2021/09/02 16:33:56;;;;;;;8.13;3.04;;;;;;;20.71;70.89;101039.03;;;;-51
2021/09/02 16:36:56;;;;;;;11.03;3.23;;;;;;;20.70;70.83;101033.91;;;;-53
2021/09/02 16:39:56;;;;;;;5.60;3.17;;;;;;;20.70;70.84;101032.60;;;;-53